Time;durP1;ratioP1;P1;durP2;ratioP2;P2;SDS_P1;SDS_P2;PMS_P1;PMS_P2;Temp;Humidity;BMP_temperature;BMP_pressure;BME280_temperature;BME280_humidity;BME280_pressure;Samples;Min_cycle;Max_cycle;Signal;HPM_P1;HPM_P2
2023/09/10 00:00:52;;;;;;;31.52;11.05;;;;;;;;;;4997051;28;20434;-77
2023/09/10 00:03:19;;;;;;;26.80;11.00;;;;;;;;;;4984931;28;20535;-78
2023/09/10 00:05:46;;;;;;;29.73;11.00;;;;;;;;;;4988673;28;20430;-78
2023/09/10 00:08:13;;;;;;;31.23;11.32;;;;;;;;;;4989043;28;20914;-76
2023/09/10 00:10:41;;;;;;;28.33;11.70;;;;;;;;;;4971167;28;20479;-78
2023/09/10 00:13:09;;;;;;;26.97;11.50;;;;;;;;;;4980970;28;20514;-78
2023/09/10 00:15:36;;;;;;;28.95;11.60;;;;;;;;;;4991537;28;20520;-78
2023/09/10 00:18:05;;;;;;;27.10;11.27;;;;;;;;;;4978321;28;20412;-79
2023/09/10 00:20:32;;;;;;;27.52;11.30;;;;;;;;;;5018277;28;20911;-78
2023/09/10 00:22:58;;;;;;;30.15;11.27;;;;;;;;;;4980185;28;20410;-78
2023/09/10 00:25:25;;;;;;;25.88;10.40;;;;;;;;;;4984679;28;20423;-78
2023/09/10 00:27:55;;;;;;;25.73;10.15;;;;;;;;;;4994583;28;20467;-78
2023/09/10 00:30:22;;;;;;;30.17;11.52;;;;;;;;;;5011525;28;20435;-78
2023/09/10 00:32:49;;;;;;;31.63;11.47;;;;;;;;;;4988867;28;20770;-78
2023/09/10 00:35:17;;;;;;;28.17;10.95;;;;;;;;;;4977075;28;20462;-78
2023/09/10 00:37:44;;;;;;;28.40;11.30;;;;;;;;;;5013501;28;20426;-77
2023/09/10 00:40:14;;;;;;;27.02;11.40;;;;;;;;;;4979384;28;20427;-78
2023/09/10 00:42:42;;;;;;;26.45;11.18;;;;;;;;;;4985971;28;20428;-79
2023/09/10 00:45:12;;;;;;;28.60;11.30;;;;;;;;;;4997700;28;20440;-77
2023/09/10 00:47:40;;;;;;;27.70;10.80;;;;;;;;;;4996711;28;20423;-78
2023/09/10 00:50:09;;;;;;;31.48;11.00;;;;;;;;;;5001784;28;20766;-77
2023/09/10 00:52:40;;;;;;;29.07;11.20;;;;;;;;;;4989684;28;20403;-78
2023/09/10 00:55:07;;;;;;;28.67;11.23;;;;;;;;;;4986466;28;20489;-78
2023/09/10 00:57:39;;;;;;;28.03;10.50;;;;;;;;;;4991057;28;20433;-78
2023/09/10 01:00:08;;;;;;;26.40;11.07;;;;;;;;;;4983824;28;20427;-79
2023/09/10 01:02:36;;;;;;;25.70;10.38;;;;;;;;;;4968335;28;20454;-78
2023/09/10 01:05:03;;;;;;;28.25;11.35;;;;;;;;;;4981686;28;20436;-77
2023/09/10 01:07:30;;;;;;;28.58;10.30;;;;;;;;;;4955860;28;20467;-79
2023/09/10 01:09:58;;;;;;;30.60;10.75;;;;;;;;;;5004656;28;20903;-77
2023/09/10 01:12:32;;;;;;;28.60;10.52;;;;;;;;;;4987838;28;20414;-79
2023/09/10 01:15:03;;;;;;;25.00;10.00;;;;;;;;;;4991684;28;20422;-79
2023/09/10 01:17:35;;;;;;;25.13;9.73;;;;;;;;;;5018710;28;20427;-77
2023/09/10 01:20:11;;;;;;;30.40;11.35;;;;;;;;;;4994575;28;20926;-77
2023/09/10 01:22:43;;;;;;;27.52;11.75;;;;;;;;;;5013831;28;20548;-77
2023/09/10 01:25:12;;;;;;;26.58;10.10;;;;;;;;;;5006084;28;20441;-77
2023/09/10 01:27:39;;;;;;;26.00;10.40;;;;;;;;;;5020552;28;20431;-77
2023/09/10 01:30:09;;;;;;;26.75;11.30;;;;;;;;;;4994267;28;20477;-77
2023/09/10 01:32:40;;;;;;;28.23;10.10;;;;;;;;;;4990540;28;20418;-78
2023/09/10 01:35:10;;;;;;;28.17;10.73;;;;;;;;;;4987329;28;20923;-77
2023/09/10 01:37:54;;;;;;;30.23;11.05;;;;;;;;;;4988258;28;20420;-77
2023/09/10 01:40:26;;;;;;;27.38;10.80;;;;;;;;;;4979757;28;20548;-77
2023/09/10 01:42:54;;;;;;;26.03;10.97;;;;;;;;;;4998247;28;20788;-77
2023/09/10 01:45:22;;;;;;;24.77;10.13;;;;;;;;;;4973742;28;20423;-77
2023/09/10 01:47:49;;;;;;;27.80;10.07;;;;;;;;;;4970067;28;20430;-78
2023/09/10 01:50:16;;;;;;;27.00;9.47;;;;;;;;;;4990446;28;20517;-78
2023/09/10 01:52:43;;;;;;;31.10;11.68;;;;;;;;;;4983317;28;20925;-78
2023/09/10 01:55:10;;;;;;;24.65;10.10;;;;;;;;;;4986799;28;20549;-78
2023/09/10 01:57:38;;;;;;;28.63;10.80;;;;;;;;;;4974816;28;20424;-78
2023/09/10 02:00:08;;;;;;;26.85;9.90;;;;;;;;;;4994353;28;20428;-79
2023/09/10 02:02:37;;;;;;;25.92;10.50;;;;;;;;;;4987331;28;20426;-78
2023/09/10 02:05:05;;;;;;;28.35;10.80;;;;;;;;;;4962309;28;20424;-79
2023/09/10 02:07:32;;;;;;;28.10;10.20;;;;;;;;;;4999841;28;20800;-78
2023/09/10 02:09:58;;;;;;;28.80;10.23;;;;;;;;;;4983174;28;20424;-78
2023/09/10 02:12:26;;;;;;;25.92;10.10;;;;;;;;;;4987233;28;20412;-78
2023/09/10 02:14:55;;;;;;;26.17;10.20;;;;;;;;;;4988310;28;20870;-78
2023/09/10 02:17:22;;;;;;;28.47;10.53;;;;;;;;;;4980347;28;20912;-78
2023/09/10 02:19:49;;;;;;;29.20;10.37;;;;;;;;;;4977073;28;20430;-78
2023/09/10 02:22:16;;;;;;;26.27;10.60;;;;;;;;;;4987307;28;20451;-78
2023/09/10 02:24:43;;;;;;;26.95;10.55;;;;;;;;;;4991753;28;20462;-78
2023/09/10 02:27:10;;;;;;;31.35;10.73;;;;;;;;;;4989603;28;20785;-78
2023/09/10 02:29:36;;;;;;;27.67;10.77;;;;;;;;;;4983025;28;20458;-78
2023/09/10 02:32:05;;;;;;;27.60;10.48;;;;;;;;;;4986214;28;20407;-77
2023/09/10 02:34:32;;;;;;;26.38;10.23;;;;;;;;;;5001716;28;20504;-77
2023/09/10 02:36:59;;;;;;;28.25;10.73;;;;;;;;;;4992861;28;20430;-78
2023/09/10 02:39:26;;;;;;;25.73;10.32;;;;;;;;;;5005616;28;20759;-76
2023/09/10 02:41:53;;;;;;;26.70;10.63;;;;;;;;;;4975645;28;20475;-78
2023/09/10 02:44:20;;;;;;;25.67;10.00;;;;;;;;;;4985463;28;20474;-78
2023/09/10 02:46:47;;;;;;;29.83;10.70;;;;;;;;;;4974208;28;21109;-78
2023/09/10 02:49:16;;;;;;;30.25;11.07;;;;;;;;;;4985311;28;20416;-78
2023/09/10 02:51:43;;;;;;;29.02;10.85;;;;;;;;;;4988283;28;20479;-77
2023/09/10 02:54:09;;;;;;;25.55;9.93;;;;;;;;;;5001611;28;20432;-78
2023/09/10 02:56:37;;;;;;;29.40;10.20;;;;;;;;;;4990682;28;20507;-78
2023/09/10 02:59:04;;;;;;;29.50;10.70;;;;;;;;;;4990473;28;20433;-78
2023/09/10 03:01:31;;;;;;;28.75;11.38;;;;;;;;;;5001055;28;20459;-77
2023/09/10 03:03:57;;;;;;;27.00;10.80;;;;;;;;;;4981335;28;20430;-77
2023/09/10 03:06:26;;;;;;;30.05;11.30;;;;;;;;;;5007702;28;20770;-77
2023/09/10 03:08:52;;;;;;;26.87;11.20;;;;;;;;;;4981664;28;20766;-77
2023/09/10 03:11:19;;;;;;;29.87;11.90;;;;;;;;;;4987717;28;20475;-77
2023/09/10 03:13:46;;;;;;;27.02;11.80;;;;;;;;;;5013002;28;20929;-78
2023/09/10 03:16:14;;;;;;;27.73;11.93;;;;;;;;;;4984703;28;20412;-77
2023/09/10 03:18:41;;;;;;;26.27;10.95;;;;;;;;;;5007982;28;20462;-76
2023/09/10 03:21:08;;;;;;;26.77;10.40;;;;;;;;;;4990341;28;20462;-77
2023/09/10 03:23:37;;;;;;;25.15;10.32;;;;;;;;;;5001574;28;20783;-77
2023/09/10 03:26:03;;;;;;;27.83;11.43;;;;;;;;;;4988735;28;20423;-77
2023/09/10 03:28:31;;;;;;;27.45;11.05;;;;;;;;;;5006141;28;20565;-78
2023/09/10 03:30:57;;;;;;;27.38;11.82;;;;;;;;;;4981876;28;20406;-76
2023/09/10 03:33:25;;;;;;;27.20;10.48;;;;;;;;;;4989333;28;20421;-77
2023/09/10 03:35:52;;;;;;;32.20;11.63;;;;;;;;;;5005360;28;20522;-76
2023/09/10 03:38:22;;;;;;;27.33;12.13;;;;;;;;;;4993799;28;20525;-77
2023/09/10 03:40:50;;;;;;;29.88;12.10;;;;;;;;;;5006151;28;20515;-77
2023/09/10 03:43:17;;;;;;;28.90;11.47;;;;;;;;;;4980935;28;20971;-77
2023/09/10 03:45:44;;;;;;;29.70;11.30;;;;;;;;;;5005137;28;20534;-77
2023/09/10 03:48:12;;;;;;;26.73;10.98;;;;;;;;;;5001581;28;20422;-77
2023/09/10 03:50:39;;;;;;;25.67;11.27;;;;;;;;;;4980260;28;20416;-77
2023/09/10 03:53:07;;;;;;;27.85;11.50;;;;;;;;;;5013291;28;20948;-77
2023/09/10 03:55:33;;;;;;;27.67;12.15;;;;;;;;;;4999529;28;20927;-77
2023/09/10 03:58:02;;;;;;;29.52;11.85;;;;;;;;;;4974963;28;20431;-77
2023/09/10 04:00:28;;;;;;;28.40;12.30;;;;;;;;;;4990439;28;20540;-77
2023/09/10 04:02:55;;;;;;;30.30;12.77;;;;;;;;;;4987325;28;20440;-76
2023/09/10 04:05:22;;;;;;;28.17;11.73;;;;;;;;;;5003108;28;20533;-77
2023/09/10 04:07:49;;;;;;;31.23;12.40;;;;;;;;;;4974371;28;20414;-76
2023/09/10 04:10:15;;;;;;;29.53;12.13;;;;;;;;;;4989630;28;20456;-76
2023/09/10 04:12:42;;;;;;;29.25;12.13;;;;;;;;;;4988973;28;20491;-76
2023/09/10 04:15:11;;;;;;;26.75;11.95;;;;;;;;;;4986499;28;20441;-78
2023/09/10 04:17:38;;;;;;;27.58;12.20;;;;;;;;;;4995347;28;20431;-77
2023/09/10 04:20:07;;;;;;;30.85;12.65;;;;;;;;;;4984131;28;20455;-77
2023/09/10 04:22:34;;;;;;;33.83;13.00;;;;;;;;;;4998102;28;20416;-77
2023/09/10 04:25:01;;;;;;;31.93;12.60;;;;;;;;;;4996269;28;20531;-76
2023/09/10 04:27:28;;;;;;;30.15;12.20;;;;;;;;;;4978000;28;20402;-77
2023/09/10 04:29:57;;;;;;;34.90;14.17;;;;;;;;;;4977024;28;20438;-77
2023/09/10 04:32:25;;;;;;;27.33;11.73;;;;;;;;;;4977054;28;20908;-76
2023/09/10 04:34:52;;;;;;;29.20;12.23;;;;;;;;;;5000669;28;20426;-77
2023/09/10 04:37:19;;;;;;;28.13;13.15;;;;;;;;;;5012215;28;20424;-77
2023/09/10 04:39:46;;;;;;;28.52;12.70;;;;;;;;;;5011523;28;20490;-77
2023/09/10 04:42:12;;;;;;;32.05;12.88;;;;;;;;;;4967111;28;20428;-77
2023/09/10 04:44:39;;;;;;;27.73;12.30;;;;;;;;;;5013786;28;20426;-77
2023/09/10 04:47:06;;;;;;;31.88;12.48;;;;;;;;;;5022286;28;20839;-77
2023/09/10 04:49:34;;;;;;;30.63;12.60;;;;;;;;;;5018361;28;20434;-78
2023/09/10 04:52:01;;;;;;;28.20;12.50;;;;;;;;;;5010796;28;20978;-78
2023/09/10 04:54:28;;;;;;;27.00;12.07;;;;;;;;;;4974917;28;20428;-77
2023/09/10 04:56:55;;;;;;;32.03;11.90;;;;;;;;;;4978723;28;20427;-78
2023/09/10 04:59:26;;;;;;;30.73;12.52;;;;;;;;;;4991181;28;20425;-78
2023/09/10 05:01:53;;;;;;;29.45;11.35;;;;;;;;;;5014862;28;20438;-77
2023/09/10 05:04:20;;;;;;;27.53;11.43;;;;;;;;;;5014730;28;20421;-77
2023/09/10 05:06:48;;;;;;;31.23;12.90;;;;;;;;;;4991178;28;20984;-78
2023/09/10 05:09:15;;;;;;;31.52;12.50;;;;;;;;;;4983263;28;20416;-77
2023/09/10 05:11:42;;;;;;;27.48;11.43;;;;;;;;;;4991827;28;20414;-77
2023/09/10 05:14:09;;;;;;;27.48;12.27;;;;;;;;;;5008612;28;20842;-76
2023/09/10 05:16:35;;;;;;;27.73;11.35;;;;;;;;;;4989692;28;20635;-76
2023/09/10 05:19:02;;;;;;;30.77;11.77;;;;;;;;;;4993162;28;20420;-77
2023/09/10 05:21:29;;;;;;;28.80;11.60;;;;;;;;;;5002458;28;20501;-76
2023/09/10 05:23:57;;;;;;;30.00;12.43;;;;;;;;;;4984123;28;20446;-77
2023/09/10 05:26:24;;;;;;;29.98;11.55;;;;;;;;;;4984901;28;20422;-77
2023/09/10 05:28:51;;;;;;;29.52;11.20;;;;;;;;;;4990543;28;20474;-77
2023/09/10 05:31:18;;;;;;;29.90;12.25;;;;;;;;;;4987691;28;20428;-76
2023/09/10 05:33:45;;;;;;;32.10;13.57;;;;;;;;;;4985075;28;20414;-77
2023/09/10 05:36:11;;;;;;;28.55;11.23;;;;;;;;;;4983651;28;20429;-77
2023/09/10 05:38:38;;;;;;;29.67;11.68;;;;;;;;;;4975137;28;20433;-77
2023/09/10 05:41:07;;;;;;;27.60;12.10;;;;;;;;;;4980581;28;20509;-76
2023/09/10 05:43:34;;;;;;;27.00;11.60;;;;;;;;;;4990688;28;20421;-77
2023/09/10 05:46:01;;;;;;;26.90;10.80;;;;;;;;;;5005194;28;20430;-77
2023/09/10 05:48:32;;;;;;;28.30;11.38;;;;;;;;;;4985980;28;20823;-78
2023/09/10 05:50:59;;;;;;;25.65;11.88;;;;;;;;;;4984848;28;20481;-77
2023/09/10 05:53:28;;;;;;;25.98;11.52;;;;;;;;;;5002009;28;20790;-77
2023/09/10 05:55:55;;;;;;;25.13;11.20;;;;;;;;;;4983793;28;20432;-77
2023/09/10 05:58:24;;;;;;;26.40;10.77;;;;;;;;;;5017380;28;20543;-77
2023/09/10 06:00:54;;;;;;;26.42;11.05;;;;;;;;;;4983019;28;20429;-76
2023/09/10 06:03:21;;;;;;;28.57;11.77;;;;;;;;;;4988838;28;20412;-77
2023/09/10 06:05:48;;;;;;;26.88;10.35;;;;;;;;;;4977130;28;20424;-78
2023/09/10 06:08:15;;;;;;;26.52;10.82;;;;;;;;;;4981855;28;20408;-77
2023/09/10 06:10:42;;;;;;;27.73;10.00;;;;;;;;;;4988801;28;20422;-77
2023/09/10 06:13:08;;;;;;;25.63;9.80;;;;;;;;;;4991648;28;20497;-77
2023/09/10 06:15:38;;;;;;;28.83;10.27;;;;;;;;;;4986467;28;20422;-78
2023/09/10 06:18:05;;;;;;;27.33;10.90;;;;;;;;;;4991136;28;20419;-76
2023/09/10 06:20:32;;;;;;;25.77;10.20;;;;;;;;;;4985463;28;20415;-77
2023/09/10 06:22:59;;;;;;;27.75;9.10;;;;;;;;;;4984334;28;20436;-77
2023/09/10 06:25:26;;;;;;;26.38;9.57;;;;;;;;;;4990259;28;20432;-77
2023/09/10 06:27:53;;;;;;;24.58;8.93;;;;;;;;;;4992048;28;20422;-77
2023/09/10 06:30:20;;;;;;;27.50;9.48;;;;;;;;;;4992837;28;20411;-77
2023/09/10 06:32:49;;;;;;;26.23;8.48;;;;;;;;;;4985526;28;20416;-77
2023/09/10 06:35:17;;;;;;;30.80;9.60;;;;;;;;;;4988989;28;20423;-76
2023/09/10 06:37:45;;;;;;;26.30;9.20;;;;;;;;;;4986641;28;20973;-77
2023/09/10 06:40:13;;;;;;;26.73;8.55;;;;;;;;;;4997853;28;20421;-77
2023/09/10 06:42:41;;;;;;;23.25;8.23;;;;;;;;;;4991898;28;20934;-77
2023/09/10 06:45:15;;;;;;;25.27;8.50;;;;;;;;;;4989649;28;20475;-76
2023/09/10 06:47:42;;;;;;;23.10;8.13;;;;;;;;;;4978328;28;20506;-77
2023/09/10 06:50:10;;;;;;;28.15;9.50;;;;;;;;;;4987419;28;20898;-76
2023/09/10 06:52:37;;;;;;;26.42;8.98;;;;;;;;;;4991819;28;20438;-76
2023/09/10 06:55:04;;;;;;;26.88;7.93;;;;;;;;;;4978814;28;20988;-77
2023/09/10 06:57:31;;;;;;;24.67;7.90;;;;;;;;;;4987546;28;20515;-76
2023/09/10 06:59:59;;;;;;;26.90;7.50;;;;;;;;;;4984214;28;20456;-77
2023/09/10 07:02:26;;;;;;;24.13;8.25;;;;;;;;;;4985689;28;20427;-76
2023/09/10 07:04:53;;;;;;;22.35;7.05;;;;;;;;;;4982818;28;20416;-76
2023/09/10 07:07:22;;;;;;;21.52;7.30;;;;;;;;;;4988645;28;20432;-77
2023/09/10 07:09:48;;;;;;;24.65;7.55;;;;;;;;;;4983534;28;20498;-78
2023/09/10 07:12:15;;;;;;;27.47;8.03;;;;;;;;;;5008676;28;20836;-76
2023/09/10 07:14:43;;;;;;;22.83;6.80;;;;;;;;;;4980086;28;20900;-79
2023/09/10 07:17:11;;;;;;;22.80;7.40;;;;;;;;;;4983475;28;20461;-78
2023/09/10 07:19:37;;;;;;;24.00;7.47;;;;;;;;;;4985130;28;20910;-80
2023/09/10 07:22:04;;;;;;;25.27;6.65;;;;;;;;;;4981755;28;20484;-79
2023/09/10 07:24:32;;;;;;;29.38;7.32;;;;;;;;;;5001738;28;20899;-78
2023/09/10 07:27:01;;;;;;;26.77;6.93;;;;;;;;;;4985737;28;20486;-79
2023/09/10 07:29:28;;;;;;;22.52;7.05;;;;;;;;;;4973859;28;20428;-78
2023/09/10 07:31:55;;;;;;;24.40;7.40;;;;;;;;;;4985943;28;20499;-80
2023/09/10 07:34:21;;;;;;;21.80;7.03;;;;;;;;;;4984530;28;20802;-80
2023/09/10 07:36:49;;;;;;;23.02;7.60;;;;;;;;;;5004955;28;20430;-80
2023/09/10 07:39:17;;;;;;;22.65;6.55;;;;;;;;;;4981768;28;20418;-80
2023/09/10 07:41:45;;;;;;;19.63;6.63;;;;;;;;;;4983946;28;20449;-78
2023/09/10 07:44:12;;;;;;;22.92;7.28;;;;;;;;;;4979405;28;20412;-78
2023/09/10 07:46:40;;;;;;;21.67;6.38;;;;;;;;;;4988299;28;20424;-79
2023/09/10 07:49:07;;;;;;;21.80;6.38;;;;;;;;;;4979916;28;20475;-78
2023/09/10 07:51:34;;;;;;;22.35;5.90;;;;;;;;;;4973312;28;20422;-78
2023/09/10 07:54:02;;;;;;;23.15;6.30;;;;;;;;;;4981712;28;20412;-77
2023/09/10 07:56:29;;;;;;;22.63;6.63;;;;;;;;;;4989161;28;20424;-76
2023/09/10 07:58:58;;;;;;;21.15;5.90;;;;;;;;;;5012283;28;20789;-78
2023/09/10 08:01:24;;;;;;;20.27;6.40;;;;;;;;;;4984508;28;20406;-77
2023/09/10 08:03:51;;;;;;;24.88;6.80;;;;;;;;;;4991090;28;20420;-76
2023/09/10 08:06:19;;;;;;;21.07;5.97;;;;;;;;;;4981145;28;20511;-78
2023/09/10 08:08:46;;;;;;;21.75;5.80;;;;;;;;;;4988539;28;20422;-77
2023/09/10 08:11:13;;;;;;;21.15;6.07;;;;;;;;;;5014754;28;20428;-77
2023/09/10 08:13:42;;;;;;;17.90;5.30;;;;;;;;;;4976295;28;20503;-78
2023/09/10 08:16:13;;;;;;;21.73;5.85;;;;;;;;;;5000373;28;20423;-77
2023/09/10 08:18:41;;;;;;;27.10;6.47;;;;;;;;;;5013807;28;20543;-76
2023/09/10 08:21:08;;;;;;;19.67;5.50;;;;;;;;;;4978329;28;20416;-78
2023/09/10 08:23:35;;;;;;;22.85;5.65;;;;;;;;;;4982414;28;20431;-77
2023/09/10 08:26:02;;;;;;;21.08;5.72;;;;;;;;;;4988396;28;20426;-77
2023/09/10 08:28:30;;;;;;;22.10;6.00;;;;;;;;;;4975284;28;20421;-77
2023/09/10 08:31:00;;;;;;;22.55;5.00;;;;;;;;;;5010233;28;20430;-76
2023/09/10 08:33:28;;;;;;;18.95;5.50;;;;;;;;;;4982169;28;20873;-77
2023/09/10 08:35:55;;;;;;;21.33;5.50;;;;;;;;;;5012341;28;20427;-79
2023/09/10 08:38:22;;;;;;;20.55;5.30;;;;;;;;;;4988135;28;20510;-78
2023/09/10 08:40:56;;;;;;;20.60;5.45;;;;;;;;;;4987702;28;20419;-79
2023/09/10 08:43:30;;;;;;;21.60;5.00;;;;;;;;;;4981386;28;20433;-78
2023/09/10 08:45:58;;;;;;;20.30;5.28;;;;;;;;;;4987375;28;20425;-78
2023/09/10 08:48:26;;;;;;;20.60;4.93;;;;;;;;;;4982783;28;20472;-78
2023/09/10 08:50:57;;;;;;;21.83;5.57;;;;;;;;;;4986883;28;20879;-78
2023/09/10 08:53:24;;;;;;;21.15;6.20;;;;;;;;;;4980202;28;20422;-77
2023/09/10 08:55:55;;;;;;;20.10;5.30;;;;;;;;;;4987502;28;20776;-80
2023/09/10 08:58:22;;;;;;;19.98;5.45;;;;;;;;;;5012086;28;20474;-79
2023/09/10 09:00:51;;;;;;;19.02;4.38;;;;;;;;;;4990381;28;20936;-81
2023/09/10 09:03:19;;;;;;;22.63;5.10;;;;;;;;;;4996151;28;20431;-78
2023/09/10 09:05:48;;;;;;;22.75;5.30;;;;;;;;;;4987475;28;20874;-78
2023/09/10 09:08:17;;;;;;;20.20;5.43;;;;;;;;;;4979528;28;20873;-78
2023/09/10 09:10:45;;;;;;;26.77;5.50;;;;;;;;;;4982906;28;20412;-78
2023/09/10 09:13:13;;;;;;;21.92;5.32;;;;;;;;;;4973354;28;20911;-78
2023/09/10 09:15:39;;;;;;;21.58;5.25;;;;;;;;;;5015675;28;20478;-79
2023/09/10 09:18:07;;;;;;;20.42;4.30;;;;;;;;;;4981097;28;20523;-78
2023/09/10 09:20:34;;;;;;;18.92;4.70;;;;;;;;;;4982057;28;20417;-77
2023/09/10 09:23:05;;;;;;;23.05;5.70;;;;;;;;;;4988383;28;20439;-78
2023/09/10 09:25:34;;;;;;;20.50;4.80;;;;;;;;;;4982800;28;20965;-78
2023/09/10 09:28:02;;;;;;;20.00;5.03;;;;;;;;;;4982286;28;20480;-77
2023/09/10 09:30:29;;;;;;;18.20;4.88;;;;;;;;;;4989952;28;20429;-78
2023/09/10 09:32:56;;;;;;;21.65;5.28;;;;;;;;;;4990560;28;20424;-77
2023/09/10 09:35:23;;;;;;;18.73;5.00;;;;;;;;;;4981104;28;20415;-78
2023/09/10 09:37:50;;;;;;;24.75;4.65;;;;;;;;;;4984136;28;20406;-78
2023/09/10 09:40:21;;;;;;;21.40;4.55;;;;;;;;;;4985473;28;20839;-79
2023/09/10 09:42:49;;;;;;;19.30;4.40;;;;;;;;;;5017536;28;20427;-78
2023/09/10 09:45:19;;;;;;;20.02;4.47;;;;;;;;;;4991709;28;20427;-80
2023/09/10 09:47:47;;;;;;;24.83;5.97;;;;;;;;;;4992973;28;20504;-78
2023/09/10 09:50:14;;;;;;;20.10;4.10;;;;;;;;;;5015233;28;20420;-78
2023/09/10 09:52:41;;;;;;;20.23;4.63;;;;;;;;;;4989251;28;20761;-78
2023/09/10 09:55:08;;;;;;;19.50;4.50;;;;;;;;;;4985619;28;20921;-79
2023/09/10 09:57:36;;;;;;;21.10;4.30;;;;;;;;;;5013392;28;20585;-78
2023/09/10 10:00:07;;;;;;;19.23;5.30;;;;;;;;;;4990972;28;20418;-78
2023/09/10 10:02:34;;;;;;;20.45;4.57;;;;;;;;;;4992529;28;20462;-78
2023/09/10 10:05:02;;;;;;;21.05;4.07;;;;;;;;;;4987964;28;20422;-78
2023/09/10 10:07:29;;;;;;;17.40;4.60;;;;;;;;;;4993931;28;20477;-79
2023/09/10 10:10:15;;;;;;;20.10;4.65;;;;;;;;;;4992024;28;20410;-78
2023/09/10 10:12:43;;;;;;;19.55;4.28;;;;;;;;;;4993267;28;20414;-79
2023/09/10 10:15:13;;;;;;;20.70;3.80;;;;;;;;;;4980635;28;20513;-78
2023/09/10 10:17:41;;;;;;;17.85;3.90;;;;;;;;;;5010864;28;20825;-76
2023/09/10 10:20:08;;;;;;;18.45;4.25;;;;;;;;;;4986435;28;20418;-76
2023/09/10 10:22:35;;;;;;;21.10;4.32;;;;;;;;;;4963509;28;20431;-77
2023/09/10 10:25:04;;;;;;;21.90;4.70;;;;;;;;;;4985357;28;20412;-78
2023/09/10 10:27:31;;;;;;;18.88;4.38;;;;;;;;;;4980660;28;20406;-77
2023/09/10 10:29:58;;;;;;;18.60;4.70;;;;;;;;;;4979615;28;20424;-79
2023/09/10 10:32:28;;;;;;;17.88;4.55;;;;;;;;;;4986866;28;20420;-78
2023/09/10 10:34:57;;;;;;;19.92;4.50;;;;;;;;;;4987996;28;20435;-78
2023/09/10 10:37:33;;;;;;;20.08;4.40;;;;;;;;;;4984688;28;20406;-79
2023/09/10 10:40:05;;;;;;;18.45;3.85;;;;;;;;;;4987142;28;20484;-80
2023/09/10 10:42:35;;;;;;;17.40;4.03;;;;;;;;;;4981665;28;20445;-78
2023/09/10 10:45:05;;;;;;;19.48;4.18;;;;;;;;;;5014237;28;20791;-78
2023/09/10 10:47:36;;;;;;;18.20;4.93;;;;;;;;;;4983836;28;20831;-80
2023/09/10 10:50:05;;;;;;;17.95;3.92;;;;;;;;;;4984454;28;20498;-78
2023/09/10 10:52:32;;;;;;;17.88;4.20;;;;;;;;;;4978771;28;20406;-78
2023/09/10 10:54:59;;;;;;;18.52;3.55;;;;;;;;;;4979297;28;20877;-78
2023/09/10 10:57:26;;;;;;;19.80;4.30;;;;;;;;;;4981721;28;20414;-79
2023/09/10 10:59:53;;;;;;;21.48;4.60;;;;;;;;;;5000844;28;20773;-77
2023/09/10 11:02:23;;;;;;;19.50;4.30;;;;;;;;;;4983118;28;20460;-77
2023/09/10 11:05:08;;;;;;;18.65;4.45;;;;;;;;;;5014363;28;20417;-79
2023/09/10 11:07:36;;;;;;;19.88;4.30;;;;;;;;;;4996212;28;20937;-77
2023/09/10 11:10:33;;;;;;;19.27;3.90;;;;;;;;;;4981097;28;20418;-80
2023/09/10 11:13:03;;;;;;;18.13;4.23;;;;;;;;;;4943945;28;20408;-78
2023/09/10 11:15:29;;;;;;;17.90;4.18;;;;;;;;;;4965071;28;20432;-82
2023/09/10 11:18:22;;;;;;;19.48;4.50;;;;;;;;;;4981933;28;20426;-83
2023/09/10 11:20:50;;;;;;;19.27;4.07;;;;;;;;;;4984530;28;20742;-81
2023/09/10 11:23:18;;;;;;;23.00;4.90;;;;;;;;;;4962258;28;20976;-83
2023/09/10 11:25:47;;;;;;;19.65;4.40;;;;;;;;;;4978475;28;20418;-81
2023/09/10 11:28:33;;;;;;;20.13;4.72;;;;;;;;;;4987709;28;20420;-82
2023/09/10 11:31:02;;;;;;;20.63;4.22;;;;;;;;;;4982202;28;20484;-82
2023/09/10 11:33:30;;;;;;;16.73;4.17;;;;;;;;;;4979096;28;20435;-81
2023/09/10 11:35:58;;;;;;;17.33;4.20;;;;;;;;;;4996216;28;20505;-82
2023/09/10 11:38:30;;;;;;;18.17;4.20;;;;;;;;;;4982834;28;20469;-82
2023/09/10 11:41:00;;;;;;;20.85;4.20;;;;;;;;;;5011320;28;20456;-80
2023/09/10 11:43:29;;;;;;;19.13;4.43;;;;;;;;;;4976942;28;20525;-81
2023/09/10 11:45:55;;;;;;;20.70;4.55;;;;;;;;;;5012379;28;20431;-83
2023/09/10 11:48:22;;;;;;;17.55;4.50;;;;;;;;;;4961314;28;20448;-82
2023/09/10 11:50:51;;;;;;;20.10;4.50;;;;;;;;;;4987178;28;20419;-82
2023/09/10 11:53:19;;;;;;;16.77;4.05;;;;;;;;;;4988432;28;20399;-83
2023/09/10 11:55:48;;;;;;;17.67;4.20;;;;;;;;;;5012786;28;20418;-80
2023/09/10 11:58:16;;;;;;;17.60;4.82;;;;;;;;;;4983916;28;20505;-82
2023/09/10 12:00:43;;;;;;;21.35;4.40;;;;;;;;;;4983339;28;20426;-84
2023/09/10 12:03:10;;;;;;;19.80;4.20;;;;;;;;;;4980754;28;20524;-80
2023/09/10 12:05:37;;;;;;;17.63;4.22;;;;;;;;;;4987708;28;20431;-80
2023/09/10 12:08:04;;;;;;;20.80;4.90;;;;;;;;;;4980973;28;20947;-83
2023/09/10 12:10:31;;;;;;;20.63;4.68;;;;;;;;;;4980271;28;20415;-81
2023/09/10 12:13:03;;;;;;;17.33;4.03;;;;;;;;;;4981599;28;20414;-80
2023/09/10 12:15:33;;;;;;;17.40;4.00;;;;;;;;;;4970859;28;20475;-81
2023/09/10 12:18:04;;;;;;;22.17;4.40;;;;;;;;;;4983969;28;20776;-82
2023/09/10 12:20:32;;;;;;;17.77;4.78;;;;;;;;;;4989094;28;20419;-82
2023/09/10 12:23:00;;;;;;;19.35;4.78;;;;;;;;;;4980699;28;20436;-81
2023/09/10 12:25:27;;;;;;;19.07;5.10;;;;;;;;;;4976621;28;20463;-82
2023/09/10 12:27:54;;;;;;;20.20;4.00;;;;;;;;;;4988664;28;20755;-81
2023/09/10 12:30:23;;;;;;;19.30;4.30;;;;;;;;;;4985669;28;20424;-81
2023/09/10 12:32:52;;;;;;;19.67;4.00;;;;;;;;;;4993775;28;20437;-83
2023/09/10 12:35:19;;;;;;;17.75;4.15;;;;;;;;;;5009639;28;20507;-84
2023/09/10 12:37:50;;;;;;;19.27;4.18;;;;;;;;;;4977036;28;20731;-83
2023/09/10 12:40:17;;;;;;;20.25;3.92;;;;;;;;;;4986082;28;20481;-83
2023/09/10 12:42:44;;;;;;;17.90;4.20;;;;;;;;;;4984119;28;20421;-82
2023/09/10 12:45:11;;;;;;;23.70;5.20;;;;;;;;;;4983714;28;20786;-83
2023/09/10 12:47:39;;;;;;;19.15;4.13;;;;;;;;;;4981890;28;20900;-84
2023/09/10 12:50:06;;;;;;;22.13;4.38;;;;;;;;;;5002975;28;20427;-84
2023/09/10 12:52:33;;;;;;;17.20;3.97;;;;;;;;;;4989338;28;20445;-83
2023/09/10 12:55:00;;;;;;;17.80;4.00;;;;;;;;;;4981069;28;20748;-83
2023/09/10 12:57:28;;;;;;;22.48;4.32;;;;;;;;;;4987961;28;20427;-85
2023/09/10 12:59:55;;;;;;;18.20;4.60;;;;;;;;;;4980244;28;20451;-83
2023/09/10 13:02:22;;;;;;;18.88;4.22;;;;;;;;;;4978914;28;20522;-84
2023/09/10 13:04:52;;;;;;;16.50;3.95;;;;;;;;;;4982674;28;20428;-81
2023/09/10 13:07:18;;;;;;;19.67;4.40;;;;;;;;;;4986073;28;20766;-83
2023/09/10 13:09:45;;;;;;;18.40;4.10;;;;;;;;;;4982462;28;20501;-82
2023/09/10 13:12:12;;;;;;;17.33;4.40;;;;;;;;;;4984815;28;20408;-83
2023/09/10 13:14:39;;;;;;;17.20;4.17;;;;;;;;;;4981328;28;20408;-81
2023/09/10 13:17:07;;;;;;;17.90;4.30;;;;;;;;;;4989774;28;20474;-83
2023/09/10 13:19:37;;;;;;;19.00;4.05;;;;;;;;;;4988204;28;20812;-83
2023/09/10 13:22:05;;;;;;;19.23;3.95;;;;;;;;;;4985888;28;20445;-83
2023/09/10 13:24:32;;;;;;;17.45;4.00;;;;;;;;;;4984779;28;20920;-81
2023/09/10 13:26:59;;;;;;;19.53;4.37;;;;;;;;;;4992452;28;20423;-81
2023/09/10 13:29:26;;;;;;;18.20;4.05;;;;;;;;;;4983716;28;20442;-81
2023/09/10 13:31:52;;;;;;;19.50;4.10;;;;;;;;;;4982166;28;20430;-83
2023/09/10 13:34:19;;;;;;;16.60;4.00;;;;;;;;;;4981574;28;20475;-82
2023/09/10 13:36:46;;;;;;;20.75;4.15;;;;;;;;;;4988097;28;20524;-83
2023/09/10 13:39:14;;;;;;;18.35;4.40;;;;;;;;;;4986143;28;20459;-81
2023/09/10 13:41:40;;;;;;;20.95;4.88;;;;;;;;;;4996729;28;20415;-83
2023/09/10 13:44:07;;;;;;;23.95;5.93;;;;;;;;;;4984396;28;20460;-82
2023/09/10 13:46:36;;;;;;;17.65;4.10;;;;;;;;;;4990814;28;20472;-83
2023/09/10 13:49:04;;;;;;;18.33;4.30;;;;;;;;;;5008130;28;20505;-81
2023/09/10 13:51:30;;;;;;;19.50;4.20;;;;;;;;;;4985545;28;20416;-82
2023/09/10 13:53:57;;;;;;;19.90;4.10;;;;;;;;;;5003282;28;20461;-80
2023/09/10 13:56:31;;;;;;;18.08;4.30;;;;;;;;;;4984524;28;20915;-83
2023/09/10 13:58:58;;;;;;;17.55;4.20;;;;;;;;;;4982168;28;20421;-85
2023/09/10 14:01:24;;;;;;;18.92;4.15;;;;;;;;;;4988123;28;20496;-86
2023/09/10 14:03:51;;;;;;;18.50;4.53;;;;;;;;;;4983851;28;20481;-86
2023/09/10 14:06:18;;;;;;;18.20;4.30;;;;;;;;;;5006588;28;20459;-82
2023/09/10 14:08:44;;;;;;;20.52;4.20;;;;;;;;;;4991788;28;20469;-83
2023/09/10 14:11:11;;;;;;;20.40;4.22;;;;;;;;;;4985811;28;20410;-84
2023/09/10 14:13:39;;;;;;;18.83;4.15;;;;;;;;;;4982482;28;20426;-84
2023/09/10 14:16:06;;;;;;;17.77;4.22;;;;;;;;;;4983983;28;20428;-84
2023/09/10 14:18:33;;;;;;;18.02;3.90;;;;;;;;;;4989482;28;20773;-85
2023/09/10 14:21:00;;;;;;;17.55;4.35;;;;;;;;;;4981291;28;20413;-87
2023/09/10 14:23:27;;;;;;;17.75;4.40;;;;;;;;;;4979920;28;21009;-86
2023/09/10 14:25:54;;;;;;;18.05;4.40;;;;;;;;;;4981173;28;20418;-89
2023/09/10 14:28:21;;;;;;;17.23;4.47;;;;;;;;;;4983844;28;20441;-87